sensor_id;sensor_type;location;lat;lon;timestamp;P1;durP1;ratioP1;P2;durP2;ratioP2
78484;SDS011;67773;50.806;8.776;2023-04-25T00:01:01;2.78;;;1.73;;
78484;SDS011;67773;50.806;8.776;2023-04-25T00:03:28;4.63;;;2.03;;
78484;SDS011;67773;50.806;8.776;2023-04-25T00:05:54;5.03;;;2.10;;
78484;SDS011;67773;50.806;8.776;2023-04-25T00:08:21;6.82;;;2.17;;
78484;SDS011;67773;50.806;8.776;2023-04-25T00:10:47;5.00;;;2.10;;
78484;SDS011;67773;50.806;8.776;2023-04-25T00:13:13;4.78;;;2.25;;
78484;SDS011;67773;50.806;8.776;2023-04-25T00:15:39;4.43;;;2.08;;
78484;SDS011;67773;50.806;8.776;2023-04-25T00:18:06;7.93;;;2.28;;
78484;SDS011;67773;50.806;8.776;2023-04-25T00:20:32;2.80;;;2.00;;
78484;SDS011;67773;50.806;8.776;2023-04-25T00:22:57;4.82;;;2.40;;
78484;SDS011;67773;50.806;8.776;2023-04-25T00:25:22;6.00;;;2.73;;
78484;SDS011;67773;50.806;8.776;2023-04-25T00:27:48;6.15;;;2.60;;
78484;SDS011;67773;50.806;8.776;2023-04-25T00:30:13;5.33;;;2.70;;
78484;SDS011;67773;50.806;8.776;2023-04-25T00:32:39;4.75;;;2.28;;
78484;SDS011;67773;50.806;8.776;2023-04-25T00:35:04;4.97;;;2.33;;
78484;SDS011;67773;50.806;8.776;2023-04-25T00:37:30;4.57;;;2.15;;
78484;SDS011;67773;50.806;8.776;2023-04-25T00:40:00;6.55;;;2.80;;
78484;SDS011;67773;50.806;8.776;2023-04-25T00:42:25;6.15;;;2.17;;
78484;SDS011;67773;50.806;8.776;2023-04-25T00:44:51;3.83;;;2.38;;
78484;SDS011;67773;50.806;8.776;2023-04-25T00:47:18;3.85;;;2.33;;
78484;SDS011;67773;50.806;8.776;2023-04-25T00:49:43;3.85;;;2.63;;
78484;SDS011;67773;50.806;8.776;2023-04-25T00:52:09;5.20;;;2.28;;
78484;SDS011;67773;50.806;8.776;2023-04-25T00:54:35;9.80;;;3.40;;
78484;SDS011;67773;50.806;8.776;2023-04-25T00:57:00;5.35;;;2.53;;
78484;SDS011;67773;50.806;8.776;2023-04-25T00:59:26;6.38;;;2.70;;
78484;SDS011;67773;50.806;8.776;2023-04-25T01:01:53;4.78;;;2.38;;
78484;SDS011;67773;50.806;8.776;2023-04-25T01:04:18;4.70;;;2.65;;
78484;SDS011;67773;50.806;8.776;2023-04-25T01:06:44;4.10;;;2.60;;
78484;SDS011;67773;50.806;8.776;2023-04-25T01:09:10;7.07;;;2.55;;
78484;SDS011;67773;50.806;8.776;2023-04-25T01:11:35;5.68;;;2.75;;
78484;SDS011;67773;50.806;8.776;2023-04-25T01:14:00;6.27;;;2.60;;
78484;SDS011;67773;50.806;8.776;2023-04-25T01:16:27;6.03;;;3.22;;
78484;SDS011;67773;50.806;8.776;2023-04-25T01:18:53;6.35;;;3.10;;
78484;SDS011;67773;50.806;8.776;2023-04-25T01:21:19;7.43;;;3.67;;
78484;SDS011;67773;50.806;8.776;2023-04-25T01:23:44;9.18;;;3.78;;
78484;SDS011;67773;50.806;8.776;2023-04-25T01:26:11;6.53;;;3.80;;
78484;SDS011;67773;50.806;8.776;2023-04-25T01:28:37;8.30;;;4.20;;
78484;SDS011;67773;50.806;8.776;2023-04-25T01:31:06;6.93;;;3.75;;
78484;SDS011;67773;50.806;8.776;2023-04-25T01:33:31;9.38;;;4.05;;
78484;SDS011;67773;50.806;8.776;2023-04-25T01:35:57;7.60;;;3.55;;
78484;SDS011;67773;50.806;8.776;2023-04-25T01:38:22;8.13;;;4.13;;
78484;SDS011;67773;50.806;8.776;2023-04-25T01:40:48;7.13;;;3.78;;
78484;SDS011;67773;50.806;8.776;2023-04-25T01:43:15;7.10;;;4.10;;
78484;SDS011;67773;50.806;8.776;2023-04-25T01:45:41;7.13;;;4.03;;
78484;SDS011;67773;50.806;8.776;2023-04-25T01:48:08;7.50;;;3.67;;
78484;SDS011;67773;50.806;8.776;2023-04-25T01:50:34;8.88;;;4.60;;
78484;SDS011;67773;50.806;8.776;2023-04-25T01:52:59;6.88;;;3.67;;
78484;SDS011;67773;50.806;8.776;2023-04-25T01:55:25;7.45;;;3.80;;
78484;SDS011;67773;50.806;8.776;2023-04-25T01:57:51;6.70;;;3.85;;
78484;SDS011;67773;50.806;8.776;2023-04-25T02:00:16;6.10;;;3.50;;
78484;SDS011;67773;50.806;8.776;2023-04-25T02:02:41;8.98;;;4.70;;
78484;SDS011;67773;50.806;8.776;2023-04-25T02:05:07;9.97;;;4.33;;
78484;SDS011;67773;50.806;8.776;2023-04-25T02:07:32;12.40;;;5.10;;
78484;SDS011;67773;50.806;8.776;2023-04-25T02:09:57;7.70;;;3.70;;
78484;SDS011;67773;50.806;8.776;2023-04-25T02:12:23;8.77;;;3.80;;
78484;SDS011;67773;50.806;8.776;2023-04-25T02:14:49;7.78;;;4.00;;
78484;SDS011;67773;50.806;8.776;2023-04-25T02:17:14;9.32;;;4.68;;
78484;SDS011;67773;50.806;8.776;2023-04-25T02:19:40;9.45;;;3.60;;
78484;SDS011;67773;50.806;8.776;2023-04-25T02:22:06;6.60;;;4.00;;
78484;SDS011;67773;50.806;8.776;2023-04-25T02:24:31;11.20;;;4.13;;
78484;SDS011;67773;50.806;8.776;2023-04-25T02:26:58;7.50;;;4.15;;
78484;SDS011;67773;50.806;8.776;2023-04-25T02:29:23;9.13;;;3.72;;
78484;SDS011;67773;50.806;8.776;2023-04-25T02:31:49;9.93;;;3.83;;
78484;SDS011;67773;50.806;8.776;2023-04-25T02:34:14;8.23;;;3.90;;
78484;SDS011;67773;50.806;8.776;2023-04-25T02:36:40;9.02;;;3.83;;
78484;SDS011;67773;50.806;8.776;2023-04-25T02:39:06;8.50;;;4.22;;
78484;SDS011;67773;50.806;8.776;2023-04-25T02:41:31;8.15;;;3.63;;
78484;SDS011;67773;50.806;8.776;2023-04-25T02:43:57;6.60;;;3.83;;
78484;SDS011;67773;50.806;8.776;2023-04-25T02:46:22;9.50;;;3.87;;
78484;SDS011;67773;50.806;8.776;2023-04-25T02:48:47;10.07;;;3.90;;
78484;SDS011;67773;50.806;8.776;2023-04-25T02:51:13;7.15;;;3.67;;
78484;SDS011;67773;50.806;8.776;2023-04-25T02:53:38;5.97;;;3.38;;
78484;SDS011;67773;50.806;8.776;2023-04-25T02:56:04;9.75;;;4.35;;
78484;SDS011;67773;50.806;8.776;2023-04-25T02:58:30;9.48;;;3.97;;
78484;SDS011;67773;50.806;8.776;2023-04-25T03:00:55;6.68;;;3.53;;
78484;SDS011;67773;50.806;8.776;2023-04-25T03:03:20;7.90;;;3.77;;
78484;SDS011;67773;50.806;8.776;2023-04-25T03:05:49;6.65;;;3.33;;
78484;SDS011;67773;50.806;8.776;2023-04-25T03:08:15;6.03;;;3.35;;
78484;SDS011;67773;50.806;8.776;2023-04-25T03:10:42;5.90;;;3.20;;
78484;SDS011;67773;50.806;8.776;2023-04-25T03:13:07;6.50;;;2.65;;
78484;SDS011;67773;50.806;8.776;2023-04-25T03:15:32;6.83;;;3.00;;
78484;SDS011;67773;50.806;8.776;2023-04-25T03:17:58;7.97;;;2.93;;
78484;SDS011;67773;50.806;8.776;2023-04-25T03:20:23;5.63;;;3.17;;
78484;SDS011;67773;50.806;8.776;2023-04-25T03:22:48;6.47;;;3.83;;
78484;SDS011;67773;50.806;8.776;2023-04-25T03:25:14;5.77;;;2.50;;
78484;SDS011;67773;50.806;8.776;2023-04-25T03:27:39;9.25;;;3.40;;
78484;SDS011;67773;50.806;8.776;2023-04-25T03:30:05;6.88;;;2.90;;
78484;SDS011;67773;50.806;8.776;2023-04-25T03:32:31;6.47;;;3.10;;
78484;SDS011;67773;50.806;8.776;2023-04-25T03:34:56;6.93;;;2.60;;
78484;SDS011;67773;50.806;8.776;2023-04-25T03:37:22;7.95;;;3.17;;
78484;SDS011;67773;50.806;8.776;2023-04-25T03:39:47;5.33;;;2.83;;
78484;SDS011;67773;50.806;8.776;2023-04-25T03:42:12;5.77;;;2.80;;
78484;SDS011;67773;50.806;8.776;2023-04-25T03:44:38;6.37;;;3.20;;
78484;SDS011;67773;50.806;8.776;2023-04-25T03:47:03;6.20;;;2.90;;
78484;SDS011;67773;50.806;8.776;2023-04-25T03:49:28;6.75;;;3.05;;
78484;SDS011;67773;50.806;8.776;2023-04-25T03:51:54;7.00;;;3.50;;
78484;SDS011;67773;50.806;8.776;2023-04-25T03:54:19;8.48;;;3.20;;
78484;SDS011;67773;50.806;8.776;2023-04-25T03:56:45;6.70;;;2.88;;
78484;SDS011;67773;50.806;8.776;2023-04-25T03:59:10;8.50;;;3.53;;
78484;SDS011;67773;50.806;8.776;2023-04-25T04:01:35;5.80;;;3.33;;
78484;SDS011;67773;50.806;8.776;2023-04-25T04:04:01;7.70;;;3.55;;
78484;SDS011;67773;50.806;8.776;2023-04-25T04:06:26;9.43;;;3.60;;
78484;SDS011;67773;50.806;8.776;2023-04-25T04:08:51;7.20;;;3.67;;
78484;SDS011;67773;50.806;8.776;2023-04-25T04:11:17;6.73;;;3.77;;
78484;SDS011;67773;50.806;8.776;2023-04-25T04:13:42;7.88;;;3.60;;
78484;SDS011;67773;50.806;8.776;2023-04-25T04:16:07;7.90;;;3.23;;
78484;SDS011;67773;50.806;8.776;2023-04-25T04:18:33;6.85;;;3.92;;
78484;SDS011;67773;50.806;8.776;2023-04-25T04:20:59;8.00;;;3.60;;
78484;SDS011;67773;50.806;8.776;2023-04-25T04:23:24;6.55;;;3.40;;
78484;SDS011;67773;50.806;8.776;2023-04-25T04:25:52;7.20;;;3.70;;
78484;SDS011;67773;50.806;8.776;2023-04-25T04:28:18;6.28;;;2.70;;
78484;SDS011;67773;50.806;8.776;2023-04-25T04:30:43;6.60;;;3.40;;
78484;SDS011;67773;50.806;8.776;2023-04-25T04:33:11;13.82;;;6.43;;
78484;SDS011;67773;50.806;8.776;2023-04-25T04:35:37;8.02;;;3.72;;
78484;SDS011;67773;50.806;8.776;2023-04-25T04:38:02;8.18;;;3.35;;
78484;SDS011;67773;50.806;8.776;2023-04-25T04:40:28;6.97;;;4.05;;
78484;SDS011;67773;50.806;8.776;2023-04-25T04:42:56;6.70;;;3.00;;
78484;SDS011;67773;50.806;8.776;2023-04-25T04:45:22;6.85;;;3.67;;
78484;SDS011;67773;50.806;8.776;2023-04-25T04:47:47;8.30;;;3.20;;
78484;SDS011;67773;50.806;8.776;2023-04-25T04:50:13;6.57;;;2.70;;
78484;SDS011;67773;50.806;8.776;2023-04-25T04:52:40;11.57;;;4.32;;
78484;SDS011;67773;50.806;8.776;2023-04-25T04:55:05;15.32;;;7.38;;
78484;SDS011;67773;50.806;8.776;2023-04-25T04:57:31;9.15;;;4.18;;
78484;SDS011;67773;50.806;8.776;2023-04-25T04:59:58;5.97;;;3.03;;
78484;SDS011;67773;50.806;8.776;2023-04-25T05:02:24;5.40;;;3.15;;
78484;SDS011;67773;50.806;8.776;2023-04-25T05:04:49;8.98;;;3.25;;
78484;SDS011;67773;50.806;8.776;2023-04-25T05:07:16;8.10;;;3.50;;
78484;SDS011;67773;50.806;8.776;2023-04-25T05:09:41;7.65;;;3.03;;
78484;SDS011;67773;50.806;8.776;2023-04-25T05:12:07;7.20;;;3.90;;
78484;SDS011;67773;50.806;8.776;2023-04-25T05:14:32;6.17;;;3.50;;
78484;SDS011;67773;50.806;8.776;2023-04-25T05:16:58;5.22;;;3.25;;
78484;SDS011;67773;50.806;8.776;2023-04-25T05:19:23;5.27;;;3.23;;
78484;SDS011;67773;50.806;8.776;2023-04-25T05:21:49;8.57;;;3.75;;
78484;SDS011;67773;50.806;8.776;2023-04-25T05:24:14;6.45;;;3.45;;
78484;SDS011;67773;50.806;8.776;2023-04-25T05:26:39;6.22;;;3.22;;
78484;SDS011;67773;50.806;8.776;2023-04-25T05:29:05;6.83;;;3.87;;
78484;SDS011;67773;50.806;8.776;2023-04-25T05:31:30;6.97;;;3.27;;
78484;SDS011;67773;50.806;8.776;2023-04-25T05:33:56;7.25;;;3.22;;
78484;SDS011;67773;50.806;8.776;2023-04-25T05:36:22;9.38;;;3.30;;
78484;SDS011;67773;50.806;8.776;2023-04-25T05:38:47;7.43;;;3.63;;
78484;SDS011;67773;50.806;8.776;2023-04-25T05:41:13;6.47;;;2.73;;
78484;SDS011;67773;50.806;8.776;2023-04-25T05:43:38;8.97;;;3.67;;
78484;SDS011;67773;50.806;8.776;2023-04-25T05:46:03;5.80;;;3.42;;
78484;SDS011;67773;50.806;8.776;2023-04-25T05:48:29;18.90;;;7.00;;
78484;SDS011;67773;50.806;8.776;2023-04-25T05:50:55;8.57;;;4.18;;
78484;SDS011;67773;50.806;8.776;2023-04-25T05:53:20;8.35;;;4.35;;
78484;SDS011;67773;50.806;8.776;2023-04-25T05:55:46;9.00;;;3.72;;
78484;SDS011;67773;50.806;8.776;2023-04-25T05:58:12;8.18;;;3.53;;
78484;SDS011;67773;50.806;8.776;2023-04-25T06:00:37;6.20;;;3.10;;
78484;SDS011;67773;50.806;8.776;2023-04-25T06:03:03;6.15;;;3.17;;
78484;SDS011;67773;50.806;8.776;2023-04-25T06:05:28;7.83;;;3.43;;
78484;SDS011;67773;50.806;8.776;2023-04-25T06:07:54;7.82;;;3.20;;
78484;SDS011;67773;50.806;8.776;2023-04-25T06:10:19;6.28;;;3.33;;
78484;SDS011;67773;50.806;8.776;2023-04-25T06:12:44;7.20;;;2.88;;
78484;SDS011;67773;50.806;8.776;2023-04-25T06:15:10;7.17;;;3.23;;
78484;SDS011;67773;50.806;8.776;2023-04-25T06:17:35;6.80;;;3.13;;
78484;SDS011;67773;50.806;8.776;2023-04-25T06:20:01;6.95;;;3.83;;
78484;SDS011;67773;50.806;8.776;2023-04-25T06:22:27;6.82;;;3.63;;
78484;SDS011;67773;50.806;8.776;2023-04-25T06:24:52;9.27;;;3.72;;
78484;SDS011;67773;50.806;8.776;2023-04-25T06:27:17;5.37;;;3.07;;
78484;SDS011;67773;50.806;8.776;2023-04-25T06:29:43;7.10;;;3.43;;
78484;SDS011;67773;50.806;8.776;2023-04-25T06:32:08;13.87;;;6.10;;
78484;SDS011;67773;50.806;8.776;2023-04-25T06:34:33;14.37;;;8.37;;
78484;SDS011;67773;50.806;8.776;2023-04-25T06:36:59;7.87;;;4.37;;
78484;SDS011;67773;50.806;8.776;2023-04-25T06:39:24;8.32;;;3.50;;
78484;SDS011;67773;50.806;8.776;2023-04-25T06:41:50;5.97;;;3.17;;
78484;SDS011;67773;50.806;8.776;2023-04-25T06:44:15;7.80;;;3.72;;
78484;SDS011;67773;50.806;8.776;2023-04-25T06:46:41;7.72;;;4.00;;
78484;SDS011;67773;50.806;8.776;2023-04-25T06:49:06;7.33;;;4.43;;
78484;SDS011;67773;50.806;8.776;2023-04-25T06:51:32;6.40;;;3.30;;
78484;SDS011;67773;50.806;8.776;2023-04-25T06:53:57;6.67;;;3.23;;
78484;SDS011;67773;50.806;8.776;2023-04-25T06:56:22;5.90;;;2.67;;
78484;SDS011;67773;50.806;8.776;2023-04-25T06:58:48;5.53;;;3.00;;
78484;SDS011;67773;50.806;8.776;2023-04-25T07:01:14;5.22;;;3.00;;
78484;SDS011;67773;50.806;8.776;2023-04-25T07:03:39;5.25;;;2.30;;
78484;SDS011;67773;50.806;8.776;2023-04-25T07:06:05;9.00;;;4.03;;
78484;SDS011;67773;50.806;8.776;2023-04-25T07:08:30;4.72;;;2.63;;
78484;SDS011;67773;50.806;8.776;2023-04-25T07:10:56;6.30;;;2.40;;
78484;SDS011;67773;50.806;8.776;2023-04-25T07:13:21;3.58;;;2.00;;
78484;SDS011;67773;50.806;8.776;2023-04-25T07:15:46;4.53;;;2.60;;
78484;SDS011;67773;50.806;8.776;2023-04-25T07:18:13;6.13;;;2.42;;
78484;SDS011;67773;50.806;8.776;2023-04-25T07:20:38;4.75;;;2.40;;
78484;SDS011;67773;50.806;8.776;2023-04-25T07:23:04;3.45;;;2.13;;
78484;SDS011;67773;50.806;8.776;2023-04-25T07:25:29;4.38;;;2.30;;
78484;SDS011;67773;50.806;8.776;2023-04-25T07:27:55;5.68;;;2.78;;
78484;SDS011;67773;50.806;8.776;2023-04-25T07:30:21;4.53;;;2.50;;
78484;SDS011;67773;50.806;8.776;2023-04-25T07:32:46;5.70;;;2.23;;
78484;SDS011;67773;50.806;8.776;2023-04-25T07:35:12;4.68;;;2.40;;
78484;SDS011;67773;50.806;8.776;2023-04-25T07:37:37;3.58;;;2.20;;
78484;SDS011;67773;50.806;8.776;2023-04-25T07:40:03;5.90;;;2.53;;
78484;SDS011;67773;50.806;8.776;2023-04-25T07:42:29;6.03;;;2.10;;
78484;SDS011;67773;50.806;8.776;2023-04-25T07:44:54;5.20;;;2.53;;
78484;SDS011;67773;50.806;8.776;2023-04-25T07:47:20;3.80;;;2.20;;
78484;SDS011;67773;50.806;8.776;2023-04-25T07:49:45;3.60;;;2.07;;
78484;SDS011;67773;50.806;8.776;2023-04-25T07:52:10;3.95;;;2.22;;
78484;SDS011;67773;50.806;8.776;2023-04-25T07:54:36;5.13;;;2.88;;
78484;SDS011;67773;50.806;8.776;2023-04-25T07:57:01;3.90;;;2.20;;
78484;SDS011;67773;50.806;8.776;2023-04-25T07:59:27;3.80;;;2.50;;
78484;SDS011;67773;50.806;8.776;2023-04-25T08:01:52;5.30;;;2.22;;
78484;SDS011;67773;50.806;8.776;2023-04-25T08:04:18;5.40;;;2.57;;
78484;SDS011;67773;50.806;8.776;2023-04-25T08:06:43;3.60;;;2.07;;
78484;SDS011;67773;50.806;8.776;2023-04-25T08:09:09;5.90;;;2.43;;
78484;SDS011;67773;50.806;8.776;2023-04-25T08:11:35;4.00;;;2.13;;
78484;SDS011;67773;50.806;8.776;2023-04-25T08:14:00;3.83;;;2.35;;
78484;SDS011;67773;50.806;8.776;2023-04-25T08:16:26;4.13;;;2.70;;
78484;SDS011;67773;50.806;8.776;2023-04-25T08:18:52;3.53;;;2.35;;
78484;SDS011;67773;50.806;8.776;2023-04-25T08:21:17;7.00;;;2.60;;
78484;SDS011;67773;50.806;8.776;2023-04-25T08:23:42;5.53;;;2.47;;
78484;SDS011;67773;50.806;8.776;2023-04-25T08:26:08;4.93;;;2.60;;
78484;SDS011;67773;50.806;8.776;2023-04-25T08:28:33;3.77;;;1.90;;
78484;SDS011;67773;50.806;8.776;2023-04-25T08:30:58;6.25;;;3.42;;
78484;SDS011;67773;50.806;8.776;2023-04-25T08:33:24;6.70;;;2.80;;
78484;SDS011;67773;50.806;8.776;2023-04-25T08:35:50;4.82;;;2.40;;
78484;SDS011;67773;50.806;8.776;2023-04-25T08:38:15;6.90;;;2.53;;
78484;SDS011;67773;50.806;8.776;2023-04-25T08:40:41;4.55;;;2.33;;
78484;SDS011;67773;50.806;8.776;2023-04-25T08:43:08;4.28;;;2.03;;
78484;SDS011;67773;50.806;8.776;2023-04-25T08:45:38;5.15;;;2.47;;
78484;SDS011;67773;50.806;8.776;2023-04-25T08:48:07;6.38;;;2.35;;
78484;SDS011;67773;50.806;8.776;2023-04-25T08:50:38;9.25;;;3.13;;
78484;SDS011;67773;50.806;8.776;2023-04-25T08:53:05;10.55;;;3.40;;
78484;SDS011;67773;50.806;8.776;2023-04-25T08:55:34;8.10;;;2.95;;
78484;SDS011;67773;50.806;8.776;2023-04-25T08:58:03;4.60;;;2.78;;
78484;SDS011;67773;50.806;8.776;2023-04-25T09:00:30;3.88;;;2.40;;
78484;SDS011;67773;50.806;8.776;2023-04-25T09:02:56;5.72;;;2.35;;
78484;SDS011;67773;50.806;8.776;2023-04-25T09:05:22;6.63;;;3.08;;
78484;SDS011;67773;50.806;8.776;2023-04-25T09:07:48;4.50;;;2.60;;
78484;SDS011;67773;50.806;8.776;2023-04-25T09:10:13;5.63;;;2.85;;
78484;SDS011;67773;50.806;8.776;2023-04-25T09:12:39;9.10;;;2.87;;
78484;SDS011;67773;50.806;8.776;2023-04-25T09:17:37;6.18;;;2.97;;
78484;SDS011;67773;50.806;8.776;2023-04-25T09:20:08;5.70;;;2.53;;
78484;SDS011;67773;50.806;8.776;2023-04-25T09:22:36;7.40;;;2.50;;
78484;SDS011;67773;50.806;8.776;2023-04-25T09:25:07;4.20;;;2.03;;
78484;SDS011;67773;50.806;8.776;2023-04-25T09:27:37;6.28;;;2.53;;
78484;SDS011;67773;50.806;8.776;2023-04-25T09:30:15;5.75;;;2.25;;
78484;SDS011;67773;50.806;8.776;2023-04-25T09:32:41;8.95;;;4.15;;
78484;SDS011;67773;50.806;8.776;2023-04-25T09:35:08;4.72;;;2.80;;
78484;SDS011;67773;50.806;8.776;2023-04-25T09:37:36;8.98;;;2.45;;
78484;SDS011;67773;50.806;8.776;2023-04-25T09:40:04;5.93;;;2.72;;
78484;SDS011;67773;50.806;8.776;2023-04-25T09:42:31;4.85;;;2.05;;
78484;SDS011;67773;50.806;8.776;2023-04-25T09:45:01;6.85;;;2.15;;
78484;SDS011;67773;50.806;8.776;2023-04-25T09:47:27;5.63;;;2.25;;
78484;SDS011;67773;50.806;8.776;2023-04-25T09:49:53;4.00;;;2.05;;
78484;SDS011;67773;50.806;8.776;2023-04-25T09:52:23;6.57;;;3.10;;
78484;SDS011;67773;50.806;8.776;2023-04-25T09:54:50;6.32;;;2.42;;
78484;SDS011;67773;50.806;8.776;2023-04-25T09:57:17;4.55;;;1.90;;
78484;SDS011;67773;50.806;8.776;2023-04-25T09:59:52;9.52;;;2.80;;
78484;SDS011;67773;50.806;8.776;2023-04-25T10:02:20;4.15;;;2.28;;
78484;SDS011;67773;50.806;8.776;2023-04-25T10:04:48;6.28;;;2.55;;
78484;SDS011;67773;50.806;8.776;2023-04-25T10:07:18;3.72;;;2.25;;
78484;SDS011;67773;50.806;8.776;2023-04-25T10:09:47;4.40;;;2.20;;
78484;SDS011;67773;50.806;8.776;2023-04-25T10:12:14;4.85;;;2.08;;
78484;SDS011;67773;50.806;8.776;2023-04-25T10:14:41;4.97;;;1.73;;
78484;SDS011;67773;50.806;8.776;2023-04-25T10:17:08;6.15;;;1.92;;
78484;SDS011;67773;50.806;8.776;2023-04-25T10:19:35;4.32;;;1.80;;
78484;SDS011;67773;50.806;8.776;2023-04-25T10:22:06;4.70;;;1.30;;
78484;SDS011;67773;50.806;8.776;2023-04-25T10:24:34;3.78;;;1.75;;
78484;SDS011;67773;50.806;8.776;2023-04-25T10:27:01;4.03;;;2.33;;
78484;SDS011;67773;50.806;8.776;2023-04-25T10:29:27;4.72;;;1.80;;
78484;SDS011;67773;50.806;8.776;2023-04-25T10:31:52;4.80;;;1.90;;
78484;SDS011;67773;50.806;8.776;2023-04-25T10:34:18;6.07;;;2.20;;
78484;SDS011;67773;50.806;8.776;2023-04-25T10:36:51;8.32;;;2.78;;
78484;SDS011;67773;50.806;8.776;2023-04-25T10:39:21;3.58;;;2.00;;
78484;SDS011;67773;50.806;8.776;2023-04-25T10:41:52;6.00;;;2.00;;
78484;SDS011;67773;50.806;8.776;2023-04-25T10:44:18;3.78;;;1.80;;
78484;SDS011;67773;50.806;8.776;2023-04-25T10:46:45;5.55;;;1.90;;
78484;SDS011;67773;50.806;8.776;2023-04-25T10:49:11;5.85;;;2.35;;
78484;SDS011;67773;50.806;8.776;2023-04-25T10:52:10;4.35;;;1.63;;
78484;SDS011;67773;50.806;8.776;2023-04-25T10:54:56;3.92;;;1.88;;
78484;SDS011;67773;50.806;8.776;2023-04-25T10:57:26;4.47;;;1.92;;
78484;SDS011;67773;50.806;8.776;2023-04-25T10:59:59;6.63;;;2.17;;
78484;SDS011;67773;50.806;8.776;2023-04-25T11:02:30;2.05;;;1.35;;
78484;SDS011;67773;50.806;8.776;2023-04-25T11:04:56;5.03;;;1.65;;
78484;SDS011;67773;50.806;8.776;2023-04-25T11:07:35;4.15;;;1.75;;
78484;SDS011;67773;50.806;8.776;2023-04-25T11:10:04;4.05;;;1.45;;
78484;SDS011;67773;50.806;8.776;2023-04-25T11:12:30;8.63;;;4.25;;
78484;SDS011;67773;50.806;8.776;2023-04-25T11:15:03;3.97;;;2.00;;
78484;SDS011;67773;50.806;8.776;2023-04-25T11:17:30;2.58;;;1.58;;
78484;SDS011;67773;50.806;8.776;2023-04-25T11:19:55;5.25;;;2.08;;
78484;SDS011;67773;50.806;8.776;2023-04-25T11:22:22;4.57;;;1.92;;
78484;SDS011;67773;50.806;8.776;2023-04-25T11:24:47;5.05;;;2.22;;
78484;SDS011;67773;50.806;8.776;2023-04-25T11:27:13;5.20;;;1.98;;
78484;SDS011;67773;50.806;8.776;2023-04-25T11:29:38;6.82;;;1.83;;
78484;SDS011;67773;50.806;8.776;2023-04-25T11:32:04;7.03;;;2.07;;
78484;SDS011;67773;50.806;8.776;2023-04-25T11:34:30;5.07;;;1.58;;
78484;SDS011;67773;50.806;8.776;2023-04-25T11:36:57;5.05;;;2.10;;
78484;SDS011;67773;50.806;8.776;2023-04-25T11:39:24;6.93;;;1.92;;
78484;SDS011;67773;50.806;8.776;2023-04-25T11:41:51;4.72;;;1.73;;
78484;SDS011;67773;50.806;8.776;2023-04-25T11:44:17;5.85;;;2.42;;
78484;SDS011;67773;50.806;8.776;2023-04-25T11:46:43;5.03;;;2.22;;
78484;SDS011;67773;50.806;8.776;2023-04-25T11:49:09;5.50;;;1.90;;
78484;SDS011;67773;50.806;8.776;2023-04-25T11:51:38;6.72;;;1.98;;
78484;SDS011;67773;50.806;8.776;2023-04-25T11:54:07;4.05;;;1.83;;
78484;SDS011;67773;50.806;8.776;2023-04-25T11:56:32;7.93;;;2.28;;
78484;SDS011;67773;50.806;8.776;2023-04-25T11:59:02;4.05;;;1.75;;
78484;SDS011;67773;50.806;8.776;2023-04-25T12:01:30;3.75;;;1.80;;
78484;SDS011;67773;50.806;8.776;2023-04-25T12:03:57;4.95;;;2.38;;
78484;SDS011;67773;50.806;8.776;2023-04-25T12:06:27;4.57;;;2.08;;
78484;SDS011;67773;50.806;8.776;2023-04-25T12:09:02;4.60;;;1.88;;
78484;SDS011;67773;50.806;8.776;2023-04-25T12:11:30;4.88;;;1.63;;
78484;SDS011;67773;50.806;8.776;2023-04-25T12:14:01;3.53;;;1.95;;
78484;SDS011;67773;50.806;8.776;2023-04-25T12:16:26;5.40;;;2.33;;
78484;SDS011;67773;50.806;8.776;2023-04-25T12:18:52;4.20;;;1.90;;
78484;SDS011;67773;50.806;8.776;2023-04-25T12:21:20;3.88;;;1.80;;
78484;SDS011;67773;50.806;8.776;2023-04-25T12:23:45;4.05;;;1.95;;
78484;SDS011;67773;50.806;8.776;2023-04-25T12:26:11;3.72;;;1.85;;
78484;SDS011;67773;50.806;8.776;2023-04-25T12:28:36;4.45;;;2.10;;
78484;SDS011;67773;50.806;8.776;2023-04-25T12:31:02;6.65;;;2.75;;
78484;SDS011;67773;50.806;8.776;2023-04-25T12:33:30;5.40;;;2.35;;
78484;SDS011;67773;50.806;8.776;2023-04-25T12:35:56;3.20;;;1.40;;
78484;SDS011;67773;50.806;8.776;2023-04-25T12:38:23;4.97;;;1.92;;
78484;SDS011;67773;50.806;8.776;2023-04-25T12:40:57;5.93;;;1.67;;
78484;SDS011;67773;50.806;8.776;2023-04-25T12:43:23;3.70;;;1.35;;
78484;SDS011;67773;50.806;8.776;2023-04-25T12:45:49;2.78;;;1.52;;
78484;SDS011;67773;50.806;8.776;2023-04-25T12:48:16;4.85;;;1.88;;
78484;SDS011;67773;50.806;8.776;2023-04-25T12:50:41;3.90;;;1.50;;
78484;SDS011;67773;50.806;8.776;2023-04-25T12:53:07;3.67;;;1.90;;
78484;SDS011;67773;50.806;8.776;2023-04-25T12:55:33;3.70;;;1.27;;
78484;SDS011;67773;50.806;8.776;2023-04-25T12:57:58;2.90;;;1.40;;
78484;SDS011;67773;50.806;8.776;2023-04-25T13:00:23;5.23;;;1.90;;
78484;SDS011;67773;50.806;8.776;2023-04-25T13:02:49;4.63;;;1.25;;
78484;SDS011;67773;50.806;8.776;2023-04-25T13:05:16;5.72;;;1.30;;
78484;SDS011;67773;50.806;8.776;2023-04-25T13:07:41;3.92;;;1.25;;
78484;SDS011;67773;50.806;8.776;2023-04-25T13:10:06;5.10;;;1.40;;
78484;SDS011;67773;50.806;8.776;2023-04-25T13:12:32;4.72;;;2.30;;
78484;SDS011;67773;50.806;8.776;2023-04-25T13:14:58;3.00;;;1.58;;
78484;SDS011;67773;50.806;8.776;2023-04-25T13:17:23;8.63;;;3.03;;
78484;SDS011;67773;50.806;8.776;2023-04-25T13:19:48;5.00;;;1.23;;
78484;SDS011;67773;50.806;8.776;2023-04-25T13:22:13;3.97;;;1.40;;
78484;SDS011;67773;50.806;8.776;2023-04-25T13:24:41;3.50;;;1.60;;
78484;SDS011;67773;50.806;8.776;2023-04-25T13:27:07;3.03;;;1.42;;
78484;SDS011;67773;50.806;8.776;2023-04-25T13:29:32;4.07;;;1.67;;
78484;SDS011;67773;50.806;8.776;2023-04-25T13:31:59;2.85;;;1.63;;
78484;SDS011;67773;50.806;8.776;2023-04-25T13:34:25;3.42;;;1.40;;
78484;SDS011;67773;50.806;8.776;2023-04-25T13:36:50;3.15;;;1.42;;
78484;SDS011;67773;50.806;8.776;2023-04-25T13:39:16;3.93;;;1.67;;
78484;SDS011;67773;50.806;8.776;2023-04-25T13:41:41;5.20;;;1.60;;
78484;SDS011;67773;50.806;8.776;2023-04-25T13:44:06;3.30;;;1.40;;
78484;SDS011;67773;50.806;8.776;2023-04-25T13:46:32;4.83;;;1.03;;
78484;SDS011;67773;50.806;8.776;2023-04-25T13:48:57;3.87;;;1.60;;
78484;SDS011;67773;50.806;8.776;2023-04-25T13:51:22;3.43;;;1.10;;
78484;SDS011;67773;50.806;8.776;2023-04-25T13:53:48;2.60;;;1.23;;
78484;SDS011;67773;50.806;8.776;2023-04-25T13:56:13;3.87;;;1.40;;
78484;SDS011;67773;50.806;8.776;2023-04-25T13:58:38;3.20;;;1.13;;
78484;SDS011;67773;50.806;8.776;2023-04-25T14:01:04;4.57;;;1.95;;
78484;SDS011;67773;50.806;8.776;2023-04-25T14:03:30;5.95;;;2.65;;
78484;SDS011;67773;50.806;8.776;2023-04-25T14:05:55;7.28;;;2.90;;
78484;SDS011;67773;50.806;8.776;2023-04-25T14:08:20;3.20;;;1.13;;
78484;SDS011;67773;50.806;8.776;2023-04-25T14:10:46;1.98;;;1.10;;
78484;SDS011;67773;50.806;8.776;2023-04-25T14:13:11;3.93;;;1.40;;
78484;SDS011;67773;50.806;8.776;2023-04-25T14:15:36;2.27;;;0.90;;
78484;SDS011;67773;50.806;8.776;2023-04-25T14:18:02;2.38;;;1.02;;
78484;SDS011;67773;50.806;8.776;2023-04-25T14:20:27;2.97;;;1.20;;
78484;SDS011;67773;50.806;8.776;2023-04-25T14:22:53;3.17;;;1.20;;
78484;SDS011;67773;50.806;8.776;2023-04-25T14:25:21;4.38;;;1.10;;
78484;SDS011;67773;50.806;8.776;2023-04-25T14:27:46;5.40;;;1.35;;
78484;SDS011;67773;50.806;8.776;2023-04-25T14:30:15;5.82;;;1.50;;
78484;SDS011;67773;50.806;8.776;2023-04-25T14:32:41;4.18;;;1.38;;
78484;SDS011;67773;50.806;8.776;2023-04-25T14:35:06;2.47;;;1.10;;
78484;SDS011;67773;50.806;8.776;2023-04-25T14:37:32;3.05;;;1.42;;
78484;SDS011;67773;50.806;8.776;2023-04-25T14:39:57;7.47;;;2.50;;
78484;SDS011;67773;50.806;8.776;2023-04-25T14:42:23;8.37;;;1.97;;
78484;SDS011;67773;50.806;8.776;2023-04-25T14:44:48;2.83;;;1.40;;